Time;durP1;ratioP1;P1;durP2;ratioP2;P2;SDS_P1;SDS_P2;PMS_P1;PMS_P2;Temp;Humidity;BMP_temperature;BMP_pressure;BME280_temperature;BME280_humidity;BME280_pressure;Samples;Min_cycle;Max_cycle;Signal;HPM_P1;HPM_P2
2022/08/19 00:00:15;;;;;;;5.95;3.42;;;;;;;29.76;57.12;100661.09;5084145;27;69972;-31
2022/08/19 00:02:47;;;;;;;8.18;5.60;;;;;;;29.79;65.07;100673.34;5079912;27;67438;-31
2022/08/19 00:05:21;;;;;;;11.27;7.32;;;;;;;29.88;71.31;100682.84;5066368;28;72163;-30
2022/08/19 00:07:54;;;;;;;9.63;8.30;;;;;;;29.91;73.28;100681.59;5061933;28;67238;-31
2022/08/19 00:10:26;;;;;;;20.23;8.85;;;;;;;29.95;74.31;100685.50;5086760;27;69586;-31
2022/08/19 00:12:59;;;;;;;20.35;8.68;;;;;;;29.95;74.73;100677.38;5087179;27;66781;-30
2022/08/19 00:15:32;;;;;;;16.77;8.95;;;;;;;29.94;73.74;100664.94;5083548;27;70571;-31
2022/08/19 00:18:04;;;;;;;18.00;8.70;;;;;;;30.07;75.96;100675.66;5087374;27;65933;-31
2022/08/19 00:20:40;;;;;;;16.65;8.80;;;;;;;30.15;74.12;100678.09;5055670;28;70785;-32
2022/08/19 00:23:12;;;;;;;14.45;9.38;;;;;;;30.16;75.31;100685.16;5083167;27;66478;-31
2022/08/19 00:25:45;;;;;;;17.33;9.70;;;;;;;30.23;75.67;100691.38;5084804;27;71119;-31
2022/08/19 00:28:20;;;;;;;25.08;11.18;;;;;;;30.28;76.43;100699.66;5066580;28;67303;-32
2022/08/19 00:30:53;;;;;;;34.60;13.32;;;;;;;30.26;75.65;100696.34;5077963;27;70058;-32
2022/08/19 00:33:26;;;;;;;33.38;13.25;;;;;;;30.32;76.37;100715.47;5086503;27;66958;-31
2022/08/19 00:36:04;;;;;;;34.75;14.00;;;;;;;29.81;75.54;100626.13;5086994;27;70706;-31
2022/08/19 00:38:40;;;;;;;47.55;13.55;;;;;;;29.37;76.07;100549.47;5080768;27;66553;-30
2022/08/19 00:41:20;;;;;;;34.28;11.77;;;;;;;29.79;76.44;100625.50;5068531;27;70921;-31
2022/08/19 00:44:04;;;;;;;23.02;11.05;;;;;;;30.43;76.88;100733.69;5080040;27;67000;-31
2022/08/19 00:46:38;;;;;;;19.17;10.25;;;;;;;30.00;75.63;100654.03;5045764;27;70885;-31
2022/08/19 00:49:26;;;;;;;29.73;9.13;;;;;;;29.37;75.69;100557.56;5082879;27;67005;-30
2022/08/19 00:52:08;;;;;;;13.23;8.70;;;;;;;30.43;75.47;100734.50;5079877;27;70539;-30
2022/08/19 00:54:43;;;;;;;14.80;8.02;;;;;;;30.48;75.86;100736.56;5067851;27;66452;-34
2022/08/19 00:57:32;;;;;;;15.80;8.48;;;;;;;30.43;75.84;100733.69;5050810;28;70621;-30
2022/08/19 01:00:11;;;;;;;16.23;8.35;;;;;;;29.95;75.64;100650.34;5058302;27;66801;-30
2022/08/19 01:02:45;;;;;;;14.10;8.18;;;;;;;30.55;74.91;100742.72;5082831;27;70061;-30
2022/08/19 01:05:24;;;;;;;12.43;7.88;;;;;;;29.47;75.04;100564.38;5078112;27;67071;-31
2022/08/19 01:08:01;;;;;;;12.68;7.53;;;;;;;30.02;74.61;100657.38;5076129;27;69805;-31
2022/08/19 01:10:42;;;;;;;9.20;7.70;;;;;;;30.11;74.67;100666.03;5080002;27;67020;-30
2022/08/19 01:13:17;;;;;;;10.40;7.27;;;;;;;30.63;74.72;100750.56;5079978;27;70701;-31
2022/08/19 01:15:56;;;;;;;10.00;7.18;;;;;;;29.61;74.36;100574.88;5080684;27;66638;-30
2022/08/19 01:18:31;;;;;;;9.57;7.80;;;;;;;30.70;74.43;100751.34;5081958;27;70151;-31
2022/08/19 01:21:15;;;;;;;10.73;7.22;;;;;;;30.12;74.72;100651.47;5080319;27;66262;-31
2022/08/19 01:23:48;;;;;;;8.55;7.72;;;;;;;30.78;73.61;100746.69;5054914;27;70775;-30
2022/08/19 01:26:24;;;;;;;12.43;8.02;;;;;;;30.75;73.75;100755.25;5081021;27;66411;-31
2022/08/19 01:29:00;;;;;;;10.73;7.50;;;;;;;30.22;73.59;100668.06;5059707;27;71205;-30
2022/08/19 01:31:36;;;;;;;9.20;6.88;;;;;;;30.79;73.83;100776.28;5081363;27;66273;-31
2022/08/19 01:34:09;;;;;;;9.75;6.90;;;;;;;30.69;73.19;100749.69;5080168;27;70834;-32
2022/08/19 01:36:48;;;;;;;19.20;7.13;;;;;;;30.50;73.40;100708.19;5080929;27;67172;-31
2022/08/19 01:39:24;;;;;;;10.18;6.25;;;;;;;30.86;74.32;100763.50;5079845;27;69254;-31
2022/08/19 01:41:57;;;;;;;9.95;7.07;;;;;;;30.87;74.46;100772.44;5079747;27;66929;-32
2022/08/19 01:44:30;;;;;;;12.80;7.07;;;;;;;30.89;74.58;100767.66;5077824;27;70640;-31
2022/08/19 01:47:03;;;;;;;13.35;6.68;;;;;;;30.90;75.69;100778.28;5079069;27;66365;-31
2022/08/19 01:49:37;;;;;;;10.98;7.05;;;;;;;30.36;74.78;100676.06;5079790;27;70050;-31
2022/08/19 01:52:10;;;;;;;8.13;5.78;;;;;;;30.97;75.20;100772.78;5060821;27;67311;-31
2022/08/19 01:54:42;;;;;;;8.63;6.55;;;;;;;30.89;74.00;100754.94;5075828;27;70275;-31
2022/08/19 01:57:15;;;;;;;7.25;6.55;;;;;;;30.87;75.84;100761.63;5081636;27;65535;-31
2022/08/19 01:59:48;;;;;;;7.50;6.85;;;;;;;31.02;76.44;100769.41;5062784;28;71194;-30
2022/08/19 02:02:21;;;;;;;9.73;6.85;;;;;;;31.05;76.96;100769.78;5080907;27;67001;-31
2022/08/19 02:04:53;;;;;;;9.02;6.20;;;;;;;30.89;77.06;100744.09;5081646;27;70488;-32
2022/08/19 02:07:28;;;;;;;7.47;5.68;;;;;;;31.06;76.50;100757.88;5081826;27;66189;-31
2022/08/19 02:10:06;;;;;;;6.75;5.10;;;;;;;31.12;75.28;100770.56;5077473;27;69966;-30
2022/08/19 02:12:42;;;;;;;7.80;4.97;;;;;;;31.09;76.15;100765.59;5077071;27;66529;-32
2022/08/19 02:15:14;;;;;;;7.72;5.15;;;;;;;31.11;75.38;100763.47;5082159;27;70322;-31
2022/08/19 02:17:48;;;;;;;6.22;4.50;;;;;;;30.49;75.94;100657.81;5080062;27;65565;-32
2022/08/19 02:20:22;;;;;;;4.28;3.95;;;;;;;31.16;75.95;100763.63;5075894;27;70685;-30
2022/08/19 02:22:54;;;;;;;7.50;4.28;;;;;;;31.20;75.41;100760.47;5078870;27;65551;-31
2022/08/19 02:25:28;;;;;;;5.88;3.88;;;;;;;31.22;75.72;100761.06;5080659;27;70795;-32
2022/08/19 02:28:01;;;;;;;7.13;4.10;;;;;;;31.24;75.36;100756.25;5076388;27;66906;-31
2022/08/19 02:30:33;;;;;;;7.00;4.40;;;;;;;31.28;73.91;100757.44;5078667;27;70181;-31
2022/08/19 02:33:06;;;;;;;4.43;4.03;;;;;;;31.32;73.25;100747.84;5080416;27;66137;-33
2022/08/19 02:35:43;;;;;;;9.40;3.83;;;;;;;30.78;73.40;100654.63;5080991;27;70601;-31
2022/08/19 02:38:27;;;;;;;4.05;3.65;;;;;;;31.36;73.12;100760.72;5061056;28;65843;-31
2022/08/19 02:41:04;;;;;;;6.68;3.45;;;;;;;30.93;71.62;100668.66;5081634;27;70341;-31
2022/08/19 02:43:38;;;;;;;6.70;3.15;;;;;;;31.42;70.83;100750.03;5041140;28;66696;-32
2022/08/19 02:46:33;;;;;;;7.38;3.13;;;;;;;31.46;70.82;100743.94;5079827;27;71071;-32
2022/08/19 02:49:08;;;;;;;6.88;3.08;;;;;;;30.87;71.45;100648.72;5077389;27;66973;-30
2022/08/19 02:51:43;;;;;;;9.70;3.03;;;;;;;30.91;71.14;100647.22;5059168;28;70863;-31
2022/08/19 02:54:16;;;;;;;5.57;2.53;;;;;;;31.54;69.22;100735.47;5080241;27;66948;-34
2022/08/19 02:56:49;;;;;;;2.63;2.20;;;;;;;31.56;70.01;100733.34;5078840;27;70615;-33
2022/08/19 02:59:21;;;;;;;6.72;2.50;;;;;;;31.58;69.90;100736.66;5079159;27;67041;-33
2022/08/19 03:01:54;;;;;;;4.57;2.17;;;;;;;31.61;70.00;100722.66;5081179;27;71047;-32
2022/08/19 03:04:26;;;;;;;4.60;2.28;;;;;;;31.50;69.78;100701.75;5080224;27;67126;-32
2022/08/19 03:06:59;;;;;;;7.55;3.00;;;;;;;31.73;69.75;100724.59;5077074;27;69965;-33
2022/08/19 03:09:42;;;;;;;6.80;2.53;;;;;;;31.70;69.64;100716.91;5079814;27;66133;-32
2022/08/19 03:12:14;;;;;;;6.65;3.22;;;;;;;31.72;69.83;100712.91;5082556;27;70753;-31
2022/08/19 03:14:47;;;;;;;4.15;2.50;;;;;;;31.72;70.06;100709.38;5081116;27;66762;-31
2022/08/19 03:17:20;;;;;;;4.22;2.72;;;;;;;31.72;69.96;100703.97;5073778;27;70542;-32
2022/08/19 03:19:53;;;;;;;4.65;2.40;;;;;;;31.77;69.77;100701.38;5078406;27;66763;-31
2022/08/19 03:22:25;;;;;;;4.18;2.15;;;;;;;31.83;68.86;100706.69;5077841;27;70881;-32
2022/08/19 03:24:59;;;;;;;3.22;2.28;;;;;;;31.88;69.30;100695.16;5059244;28;66616;-31
2022/08/19 03:27:32;;;;;;;3.47;2.47;;;;;;;31.71;69.25;100681.44;5076627;27;70059;-32
2022/08/19 03:30:06;;;;;;;7.90;3.22;;;;;;;31.89;69.05;100688.69;5057405;27;67060;-33
2022/08/19 03:32:42;;;;;;;5.38;2.75;;;;;;;31.82;68.70;100687.97;5047527;28;70849;-31
2022/08/19 03:35:15;;;;;;;5.15;3.63;;;;;;;31.90;68.80;100690.34;5075922;27;65003;-32
2022/08/19 03:37:48;;;;;;;9.57;3.20;;;;;;;31.91;67.64;100674.88;5077306;27;70410;-30
2022/08/19 03:40:21;;;;;;;5.25;3.05;;;;;;;31.94;67.32;100672.56;5062614;28;66953;-32
2022/08/19 03:42:54;;;;;;;7.68;3.30;;;;;;;31.97;67.75;100674.81;5080778;27;70292;-33
2022/08/19 03:45:27;;;;;;;3.17;2.90;;;;;;;31.77;67.59;100630.88;5080997;27;66615;-31
2022/08/19 03:48:00;;;;;;;4.03;3.60;;;;;;;31.99;67.19;100661.03;5081472;27;71067;-30
2022/08/19 03:50:33;;;;;;;9.18;3.03;;;;;;;32.00;67.30;100657.25;5083546;27;67059;-31
2022/08/19 03:53:08;;;;;;;5.15;3.38;;;;;;;31.94;67.32;100633.75;5082557;27;70157;-31
2022/08/19 03:55:41;;;;;;;4.32;2.80;;;;;;;32.00;67.60;100649.94;5080336;27;66668;-32
2022/08/19 03:58:14;;;;;;;5.43;2.83;;;;;;;31.92;67.04;100625.03;5082405;27;70970;-31
2022/08/19 04:00:46;;;;;;;4.75;2.95;;;;;;;32.11;66.70;100632.00;5080863;27;67184;-31
2022/08/19 04:03:19;;;;;;;3.22;2.30;;;;;;;32.09;66.83;100622.44;5079471;27;70939;-31
2022/08/19 04:05:53;;;;;;;6.50;2.00;;;;;;;32.13;66.45;100612.78;5084563;27;67081;-31
2022/08/19 04:08:26;;;;;;;3.95;2.00;;;;;;;31.92;66.23;100589.75;5081051;27;70465;-32
2022/08/19 04:10:59;;;;;;;2.70;2.00;;;;;;;32.09;65.96;100608.88;5083037;27;66465;-31
2022/08/19 04:13:32;;;;;;;5.38;2.15;;;;;;;32.11;66.41;100604.06;5083047;27;70553;-31
2022/08/19 04:16:05;;;;;;;3.53;1.90;;;;;;;32.10;65.93;100607.84;5087096;27;66192;-31
2022/08/19 04:18:40;;;;;;;1.92;1.77;;;;;;;32.13;66.51;100605.47;5053681;27;70553;-31
2022/08/19 04:21:19;;;;;;;6.82;2.47;;;;;;;32.15;66.16;100608.78;5063103;28;66717;-30
2022/08/19 04:23:52;;;;;;;4.88;2.10;;;;;;;32.13;65.13;100582.94;5082089;27;70050;-31
2022/08/19 04:26:34;;;;;;;3.95;2.30;;;;;;;32.22;65.23;100585.06;5066323;27;67378;-31
2022/08/19 04:29:21;;;;;;;2.70;2.00;;;;;;;32.15;64.87;100568.09;5082838;27;70198;-31
2022/08/19 04:31:55;;;;;;;4.00;2.50;;;;;;;32.29;65.47;100571.38;5082980;27;66058;-31
2022/08/19 04:34:29;;;;;;;3.65;2.13;;;;;;;31.20;65.70;100398.19;5080805;27;71178;-31
2022/08/19 04:37:11;;;;;;;7.60;3.17;;;;;;;32.25;64.78;100565.56;5061005;28;67191;-32
2022/08/19 04:42:40;;;;;;;3.70;2.42;;;;;;;32.29;64.60;100549.66;5078556;27;66267;-30
2022/08/19 04:45:15;;;;;;;4.30;2.50;;;;;;;31.75;64.07;100464.84;5065570;27;70596;-32
2022/08/19 04:47:47;;;;;;;7.22;1.95;;;;;;;32.29;63.68;100541.53;5082331;27;66199;-31
2022/08/19 04:50:29;;;;;;;3.53;2.22;;;;;;;32.29;64.91;100530.66;5079416;27;70830;-31
2022/08/19 04:53:02;;;;;;;11.27;2.67;;;;;;;32.34;64.97;100517.19;5080114;27;66113;-31
2022/08/19 04:55:41;;;;;;;9.18;2.30;;;;;;;31.72;65.62;100413.78;5083666;27;70464;-32
2022/08/19 04:58:13;;;;;;;3.45;2.45;;;;;;;32.35;66.09;100508.00;5079577;28;66768;-31
2022/08/19 05:00:46;;;;;;;3.13;2.80;;;;;;;32.28;65.86;100502.66;5079542;27;70702;-31
2022/08/19 05:03:19;;;;;;;6.78;2.70;;;;;;;32.31;65.12;100479.66;5079306;27;67273;-32
2022/08/19 05:05:52;;;;;;;9.90;2.85;;;;;;;32.45;65.04;100491.06;5079455;27;70125;-32
2022/08/19 05:08:25;;;;;;;4.03;2.30;;;;;;;32.60;63.42;100488.72;5077717;27;66532;-31
2022/08/19 05:11:01;;;;;;;3.20;1.98;;;;;;;32.57;64.35;100494.63;5084906;27;69547;-31
2022/08/19 05:13:34;;;;;;;3.88;2.33;;;;;;;32.57;64.71;100482.91;5083951;27;66762;-32
2022/08/19 05:16:10;;;;;;;3.50;2.13;;;;;;;32.51;64.25;100473.84;5091598;27;70726;-32
2022/08/19 05:24:26;;;;;;;2.95;1.77;;;;;;;31.99;59.30;100455.66;5084560;27;66914;-33
2022/08/19 05:27:02;;;;;;;2.13;1.85;;;;;;;32.03;58.26;100472.28;5078450;27;70549;-32
2022/08/19 05:29:35;;;;;;;1.83;1.70;;;;;;;31.88;57.51;100447.50;5083100;27;67156;-32
2022/08/19 05:32:11;;;;;;;1.90;1.80;;;;;;;31.86;56.74;100458.59;5081002;27;70967;-32
2022/08/19 05:34:43;;;;;;;1.67;1.58;;;;;;;31.77;56.17;100447.28;5082845;27;66450;-33
2022/08/19 05:37:16;;;;;;;4.00;1.77;;;;;;;31.76;55.45;100436.66;5083904;27;70754;-32
2022/08/19 05:39:49;;;;;;;1.85;1.65;;;;;;;31.73;55.17;100427.13;5062377;27;66044;-33
2022/08/19 05:42:23;;;;;;;1.95;1.85;;;;;;;31.66;54.61;100428.31;5084564;27;70043;-33
2022/08/19 05:44:56;;;;;;;2.08;1.67;;;;;;;31.52;53.92;100406.84;5073575;27;66332;-33
2022/08/19 05:47:28;;;;;;;1.65;1.40;;;;;;;31.59;54.23;100418.41;5092395;27;71031;-33
2022/08/19 05:50:01;;;;;;;2.83;2.20;;;;;;;31.56;53.06;100429.69;5086840;27;67134;-33
2022/08/19 05:52:38;;;;;;;2.42;1.98;;;;;;;31.51;52.76;100416.06;5083648;27;71845;-32
2022/08/19 05:55:21;;;;;;;2.15;1.75;;;;;;;31.36;52.45;100402.13;5083950;27;66483;-32
2022/08/19 05:57:54;;;;;;;2.50;1.83;;;;;;;31.49;52.16;100407.31;5085181;27;70983;-33
2022/08/19 06:00:27;;;;;;;1.98;1.77;;;;;;;31.32;51.88;100379.25;5085909;27;66718;-32
2022/08/19 06:03:02;;;;;;;2.17;1.60;;;;;;;31.29;51.06;100368.88;5086732;27;70732;-33
2022/08/19 06:05:43;;;;;;;2.38;2.03;;;;;;;31.40;51.24;100395.19;5082367;27;67185;-32
2022/08/19 06:08:22;;;;;;;3.08;1.80;;;;;;;31.35;51.06;100385.03;5084217;27;71526;-32
2022/08/19 06:11:44;;;;;;;2.47;2.28;;;;;;;31.15;50.56;100385.38;5071417;27;67027;-32
2022/08/19 06:14:20;;;;;;;2.78;2.28;;;;;;;30.31;50.61;100224.03;5074409;27;70737;-31
2022/08/19 06:17:01;;;;;;;2.65;2.20;;;;;;;31.29;50.11;100406.81;5086698;27;67244;-32
2022/08/19 06:19:37;;;;;;;2.35;2.22;;;;;;;31.22;50.19;100368.16;5079546;27;70916;-32
2022/08/19 06:22:12;;;;;;;2.60;2.40;;;;;;;31.25;49.88;100363.09;5082937;27;66253;-33
2022/08/19 06:24:45;;;;;;;2.25;2.10;;;;;;;31.25;50.19;100357.69;5086264;27;70030;-32
2022/08/19 06:27:17;;;;;;;2.50;2.30;;;;;;;31.27;49.51;100355.56;5087739;27;65996;-32
2022/08/19 06:29:50;;;;;;;2.95;2.28;;;;;;;31.29;49.85;100347.22;5088217;27;71071;-32
2022/08/19 06:32:23;;;;;;;3.08;2.83;;;;;;;31.19;49.18;100330.72;5066530;27;66981;-32
2022/08/19 06:34:55;;;;;;;2.22;2.03;;;;;;;31.28;48.73;100342.84;5081442;27;70636;-32
2022/08/19 06:37:28;;;;;;;2.85;2.30;;;;;;;31.27;48.23;100338.47;5083030;27;66785;-32
2022/08/19 06:40:01;;;;;;;2.45;2.22;;;;;;;31.27;47.83;100327.66;5085075;27;70505;-32
2022/08/19 06:42:35;;;;;;;2.10;1.90;;;;;;;31.27;47.40;100327.66;5084625;27;66993;-31
2022/08/19 06:45:11;;;;;;;1.70;1.60;;;;;;;31.12;47.65;100296.44;5085724;27;71064;-33
2022/08/19 06:47:45;;;;;;;4.88;2.50;;;;;;;31.28;46.92;100323.88;5084126;27;66685;-31
2022/08/19 06:50:18;;;;;;;2.13;2.00;;;;;;;31.27;47.14;100316.81;5088538;27;69882;-31
2022/08/19 06:52:55;;;;;;;2.60;2.17;;;;;;;31.22;46.96;100313.97;5085796;27;66490;-31
2022/08/19 06:55:31;;;;;;;2.55;2.35;;;;;;;30.68;47.10;100214.69;5089294;27;70742;-31
2022/08/19 06:58:04;;;;;;;4.38;2.78;;;;;;;31.29;46.53;100303.84;5090036;27;66730;-32
2022/08/19 07:00:37;;;;;;;2.53;2.33;;;;;;;31.31;47.15;100296.28;5083571;27;71407;-33
2022/08/19 07:03:10;;;;;;;2.58;2.38;;;;;;;31.29;46.29;100287.59;5081026;27;67050;-32
2022/08/19 07:05:43;;;;;;;5.93;2.05;;;;;;;31.31;46.87;100285.44;5082586;27;70662;-31
2022/08/19 07:08:16;;;;;;;14.68;2.08;;;;;;;31.25;46.72;100275.56;5082452;27;66280;-32
2022/08/19 07:10:49;;;;;;;3.60;1.90;;;;;;;31.40;46.77;100294.91;5081725;27;70710;-32
2022/08/19 07:13:21;;;;;;;2.28;1.92;;;;;;;31.36;45.94;100288.31;5066064;27;65900;-31
2022/08/19 07:15:54;;;;;;;2.28;2.08;;;;;;;31.43;46.29;100289.00;5084263;27;70247;-32
2022/08/19 07:18:27;;;;;;;9.57;2.72;;;;;;;31.43;46.04;100280.88;5082576;27;67058;-31
2022/08/19 07:21:10;;;;;;;7.45;2.20;;;;;;;30.87;49.30;100190.19;5089026;27;70839;-32
2022/08/19 07:23:43;;;;;;;3.70;2.60;;;;;;;31.49;53.33;100277.22;5088899;27;66906;-32
2022/08/19 07:26:22;;;;;;;5.95;2.13;;;;;;;31.03;51.95;100191.38;5083155;27;70977;-33
2022/08/19 07:28:58;;;;;;;;;;;;;;;31.27;51.61;100281.56;5083306;27;67005;-33
2022/08/19 07:31:37;;;;;;;4.30;2.70;;;;;;;31.56;50.49;100288.72;5083078;27;70272;-33
2022/08/19 07:34:13;;;;;;;3.47;2.63;;;;;;;31.59;49.38;100309.13;5088017;27;66911;-33
2022/08/19 07:36:47;;;;;;;8.38;2.55;;;;;;;31.45;48.67;100281.44;5085489;27;69568;-32
2022/08/19 07:39:23;;;;;;;8.98;2.22;;;;;;;31.56;48.63;100305.00;5037202;28;65335;-32
2022/08/19 07:41:57;;;;;;;8.13;2.40;;;;;;;30.98;48.22;100200.22;5083530;27;70859;-32
2022/08/19 07:44:30;;;;;;;16.48;2.80;;;;;;;31.59;48.14;100303.69;5075691;27;66922;-32
2022/08/19 07:47:02;;;;;;;5.72;2.80;;;;;;;31.59;47.77;100292.84;5053748;27;70014;-32
2022/08/19 07:49:35;;;;;;;8.13;3.20;;;;;;;31.30;48.05;100243.16;5081303;27;66228;-32
2022/08/19 07:52:10;;;;;;;4.25;2.65;;;;;;;31.01;47.57;100188.91;5072299;27;70420;-32
2022/08/19 07:54:42;;;;;;;4.15;2.38;;;;;;;31.57;47.57;100279.56;5090389;27;66818;-33
2022/08/19 07:57:15;;;;;;;4.38;3.15;;;;;;;31.63;47.64;100283.19;5085954;27;70820;-32
2022/08/19 07:59:48;;;;;;;5.47;2.95;;;;;;;31.63;47.23;100287.81;5089130;27;67467;-33
2022/08/19 08:02:21;;;;;;;9.55;3.03;;;;;;;31.76;50.17;100298.34;5091624;27;70539;-34
2022/08/19 08:10:35;;;;;;;6.80;4.60;;;;;;;32.24;62.20;100283.59;5094124;27;66184;-32
2022/08/19 08:13:08;;;;;;;8.95;4.07;;;;;;;32.24;61.84;100254.56;5061494;27;70680;-32
2022/08/19 08:15:41;;;;;;;4.82;4.13;;;;;;;32.40;61.46;100266.50;5090611;27;66916;-32
2022/08/19 08:18:14;;;;;;;7.43;4.25;;;;;;;32.51;61.53;100272.13;5092767;27;70559;-33
2022/08/19 08:20:47;;;;;;;8.50;3.83;;;;;;;32.58;61.75;100264.66;5088670;27;66785;-31
2022/08/19 08:23:24;;;;;;;8.07;3.95;;;;;;;32.76;60.03;100258.13;5086796;27;69768;-32
2022/08/19 08:25:58;;;;;;;6.72;3.90;;;;;;;32.96;59.69;100274.75;5085774;27;64769;-32
2022/08/19 08:28:32;;;;;;;15.77;3.88;;;;;;;33.09;59.08;100284.47;5086851;27;70182;-32
2022/08/19 08:31:04;;;;;;;10.00;3.72;;;;;;;33.20;58.53;100286.25;5091480;27;66909;-33
2022/08/19 08:33:41;;;;;;;9.98;3.90;;;;;;;33.28;58.29;100299.41;5081092;27;70492;-33
2022/08/19 08:36:15;;;;;;;9.38;4.18;;;;;;;33.38;57.88;100321.31;5087665;27;66889;-33
2022/08/19 08:38:47;;;;;;;8.40;4.35;;;;;;;33.46;57.75;100319.22;5083710;27;70685;-33
2022/08/19 08:41:44;;;;;;;6.43;3.90;;;;;;;33.46;57.85;100311.06;5078393;27;66720;-33
2022/08/19 08:45:01;;;;;;;7.70;4.40;;;;;;;33.43;57.85;100297.97;5085331;27;70841;-31
2022/08/19 08:47:41;;;;;;;11.95;4.63;;;;;;;33.57;57.66;100293.84;5077361;27;66788;-32
2022/08/19 08:50:39;;;;;;;11.48;5.43;;;;;;;33.52;57.88;100283.75;5093042;27;70743;-33
2022/08/19 08:53:19;;;;;;;8.18;5.60;;;;;;;33.61;58.15;100291.47;5088165;27;67313;-32
2022/08/19 08:56:06;;;;;;;8.02;5.75;;;;;;;33.67;57.78;100280.38;5086367;27;70097;-33
2022/08/19 08:58:48;;;;;;;7.05;5.30;;;;;;;33.69;57.72;100286.41;5074490;27;66862;-33
2022/08/19 09:01:25;;;;;;;16.92;6.18;;;;;;;33.71;57.97;100281.53;5090918;27;70225;-32
2022/08/19 09:04:03;;;;;;;12.77;6.47;;;;;;;33.70;57.47;100277.16;5080301;27;66215;-34
2022/08/19 09:07:00;;;;;;;8.25;7.13;;;;;;;33.75;58.12;100292.72;5088741;27;70735;-33
2022/08/19 09:10:04;;;;;;;7.93;7.15;;;;;;;33.64;58.98;100275.44;5086691;27;67093;-34
2022/08/19 09:12:48;;;;;;;11.52;7.90;;;;;;;33.76;58.56;100295.16;5085082;27;70955;-32
2022/08/19 09:15:30;;;;;;;24.67;7.68;;;;;;;33.31;58.95;100233.69;5085447;27;67492;-34
2022/08/19 09:18:08;;;;;;;15.70;7.28;;;;;;;33.62;59.16;100288.47;5091458;27;71355;-36
2022/08/19 09:20:49;;;;;;;8.45;7.78;;;;;;;33.77;58.94;100313.16;5050445;27;66718;-33
2022/08/19 09:23:23;;;;;;;10.07;7.78;;;;;;;33.77;59.23;100321.31;5084519;27;71160;-33
2022/08/19 09:25:57;;;;;;;13.98;8.23;;;;;;;33.78;59.18;100319.41;5090350;27;66152;-33
2022/08/19 09:28:31;;;;;;;12.07;8.45;;;;;;;33.78;59.12;100325.66;5091153;27;71309;-32
2022/08/19 09:31:03;;;;;;;9.02;8.25;;;;;;;33.78;59.07;100314.78;5088367;27;66889;-33
2022/08/19 09:33:36;;;;;;;16.10;9.15;;;;;;;33.78;59.43;100314.78;5085604;27;71067;-33
2022/08/19 09:36:12;;;;;;;9.05;8.18;;;;;;;33.78;59.52;100320.22;5077379;27;66250;-32
2022/08/19 09:39:06;;;;;;;9.50;8.30;;;;;;;33.65;59.49;100287.13;5084336;27;71084;-34
2022/08/19 09:41:45;;;;;;;;;;;;;;;33.44;60.81;100314.06;5057598;27;66343;-32
2022/08/19 09:44:23;;;;;;;8.95;7.88;;;;;;;33.71;59.50;100303.28;5083185;27;70310;-34
2022/08/19 09:47:00;;;;;;;15.45;8.85;;;;;;;33.58;59.54;100287.34;5090931;27;43139;-33
2022/08/19 09:49:32;;;;;;;11.13;8.13;;;;;;;33.65;59.52;100289.84;5053748;27;70968;-32
2022/08/19 09:52:08;;;;;;;14.55;8.88;;;;;;;33.11;59.53;100212.50;5089680;27;66431;-33
2022/08/19 09:54:43;;;;;;;15.27;8.68;;;;;;;33.69;59.73;100310.06;5089308;27;70705;-33
2022/08/19 09:57:22;;;;;;;11.23;8.18;;;;;;;33.64;60.04;100308.09;5090091;27;66625;-33
2022/08/19 09:59:54;;;;;;;10.23;9.10;;;;;;;33.57;60.02;100302.84;5088172;27;70800;-32
2022/08/19 10:02:28;;;;;;;17.25;9.65;;;;;;;33.67;60.00;100323.06;5087378;27;67478;-34
2022/08/19 10:07:57;;;;;;;17.23;10.32;;;;;;;33.64;60.21;100323.59;5089210;27;66723;-33
2022/08/19 10:10:35;;;;;;;19.45;10.50;;;;;;;33.66;60.51;100327.69;5071799;27;71073;-33
2022/08/19 10:13:15;;;;;;;16.40;10.20;;;;;;;33.23;60.73;100258.56;5052158;27;66369;-37
2022/08/19 10:15:50;;;;;;;19.63;11.30;;;;;;;33.64;60.97;100329.03;5084421;27;70880;-33
2022/08/19 10:18:24;;;;;;;16.63;11.43;;;;;;;33.64;61.10;100324.41;5081428;27;66471;-33
2022/08/19 10:21:09;;;;;;;19.40;11.50;;;;;;;33.61;61.53;100324.09;5079525;27;69834;-33
2022/08/19 10:23:47;;;;;;;21.42;12.40;;;;;;;33.64;61.22;100334.47;5086832;27;66272;-34
2022/08/19 10:26:23;;;;;;;22.08;12.43;;;;;;;32.65;61.70;100186.53;5087735;27;70455;-33
2022/08/19 10:28:57;;;;;;;22.08;12.90;;;;;;;33.03;61.75;100256.41;5088118;27;65793;-32
2022/08/19 10:31:32;;;;;;;24.30;12.45;;;;;;;32.94;61.69;100244.28;5081051;27;70036;-33
2022/08/19 10:34:25;;;;;;;18.02;11.90;;;;;;;33.58;61.96;100352.59;5091214;27;66399;-33
2022/08/19 10:37:00;;;;;;;14.75;10.95;;;;;;;33.53;61.89;100361.50;5066981;27;71145;-31
2022/08/19 10:39:35;;;;;;;20.10;10.48;;;;;;;33.55;62.41;100380.31;5079972;27;66834;-32
2022/08/19 10:42:13;;;;;;;13.40;9.20;;;;;;;33.51;62.49;100365.53;5081619;27;69797;-33
2022/08/19 10:44:49;;;;;;;15.25;9.77;;;;;;;33.48;62.33;100368.75;5078766;27;66079;-33
2022/08/19 10:47:23;;;;;;;17.40;9.68;;;;;;;33.47;62.80;100367.94;5073139;27;70028;-32
2022/08/19 10:53:03;;;;;;;10.50;8.82;;;;;;;33.32;62.72;100354.94;5083520;27;70898;-33
2022/08/19 10:58:30;;;;;;;12.63;8.20;;;;;;;33.41;62.90;100379.00;5081808;27;70475;-32
2022/08/19 11:01:03;;;;;;;11.45;7.32;;;;;;;33.30;62.82;100378.81;5082466;27;66339;-32
2022/08/19 11:03:37;;;;;;;8.88;7.65;;;;;;;33.38;62.98;100405.59;5081003;28;71463;-33
2022/08/19 11:06:22;;;;;;;10.40;8.00;;;;;;;33.01;63.00;100352.81;5084127;27;67034;-33
2022/08/19 11:08:55;;;;;;;12.00;7.47;;;;;;;33.22;62.64;100403.72;5083122;27;70704;-34
2022/08/19 11:11:28;;;;;;;8.07;7.25;;;;;;;33.38;62.77;100432.78;5084289;27;66856;-34
2022/08/19 11:14:00;;;;;;;11.27;7.47;;;;;;;33.37;62.72;100443.91;5081640;27;70918;-34
2022/08/19 11:16:33;;;;;;;8.38;7.50;;;;;;;33.35;62.82;100441.44;5083488;27;66738;-33
2022/08/19 11:19:10;;;;;;;9.95;7.78;;;;;;;33.35;62.73;100452.31;5085007;27;70918;-32
2022/08/19 11:21:44;;;;;;;8.27;7.47;;;;;;;33.24;63.35;100430.63;5058372;27;67048;-31
2022/08/19 11:24:23;;;;;;;11.90;8.00;;;;;;;33.34;63.06;100456.09;5078741;27;70730;-31
2022/08/19 11:27:04;;;;;;;12.07;6.75;;;;;;;33.30;63.29;100465.81;5076689;28;66968;-30
2022/08/19 11:29:39;;;;;;;14.57;7.20;;;;;;;33.24;63.33;100445.06;5077333;27;70268;-31
2022/08/19 11:32:12;;;;;;;7.60;6.88;;;;;;;33.20;63.37;100443.06;5081205;27;66076;-33
2022/08/19 11:34:45;;;;;;;11.40;7.53;;;;;;;33.27;63.03;100455.44;5087047;27;69987;-32
2022/08/19 11:37:18;;;;;;;13.90;7.68;;;;;;;32.86;65.00;100443.84;5088277;27;66362;-31
2022/08/19 11:39:50;;;;;;;10.43;8.32;;;;;;;32.77;66.25;100453.44;5083734;27;70814;-33
2022/08/19 11:45:14;;;;;;;19.52;9.32;;;;;;;32.46;67.58;100452.88;5084498;27;70891;-31
2022/08/19 11:47:47;;;;;;;8.70;7.80;;;;;;;32.49;67.78;100479.53;5091617;27;67092;-31
2022/08/19 11:50:20;;;;;;;10.40;8.63;;;;;;;32.46;68.43;100476.47;5093770;27;70706;-32
2022/08/19 11:52:57;;;;;;;8.82;7.65;;;;;;;32.29;68.42;100460.09;5092407;27;66499;-31
2022/08/19 11:55:29;;;;;;;8.75;7.90;;;;;;;32.43;68.33;100477.75;5081192;27;70817;-31
2022/08/19 11:58:05;;;;;;;9.52;8.38;;;;;;;32.38;69.10;100474.13;5059046;27;66629;-31
2022/08/19 12:00:48;;;;;;;10.57;8.90;;;;;;;32.34;69.11;100473.75;5087951;27;70738;-30
2022/08/19 12:03:22;;;;;;;18.98;8.57;;;;;;;32.36;69.32;100477.06;5085012;27;66552;-31
2022/08/19 12:05:56;;;;;;;10.98;7.80;;;;;;;32.33;69.48;100468.56;5087697;27;69567;-33
2022/08/19 12:08:29;;;;;;;8.90;8.05;;;;;;;32.29;69.91;100465.53;5082562;27;67163;-31
2022/08/19 12:11:01;;;;;;;9.40;8.52;;;;;;;32.29;69.73;100470.94;5081082;27;71640;-31
2022/08/19 12:13:34;;;;;;;11.45;8.60;;;;;;;32.24;69.34;100470.84;5084920;27;66967;-31
2022/08/19 12:16:12;;;;;;;8.57;7.88;;;;;;;32.10;68.97;100466.75;5063926;28;71271;-32
2022/08/19 12:18:50;;;;;;;9.63;8.65;;;;;;;32.25;69.52;100507.75;5065124;27;66823;-32
2022/08/19 12:21:28;;;;;;;10.88;9.15;;;;;;;31.82;69.88;100438.44;5084807;27;70554;-33
2022/08/19 12:24:03;;;;;;;18.25;9.35;;;;;;;32.04;69.95;100477.47;5065940;27;67522;-32
2022/08/19 12:26:36;;;;;;;9.80;8.65;;;;;;;32.26;69.97;100531.13;5084240;27;70190;-32